Flight Track Log - Related Links

Times and Time Zones

All times are in EDT time to prevent confusion due to time zone crossing. See the ASQ6016 flight status page for this flight to view local times or setup timezone preferences in your user account.

Time Position Orientation Groundspeed Altitude Reporting Facility
EDT Latitude Longitude Course Direction KTS MPH feet Rate Location/Type
Tue 04:26:54 PM 35.8922 -83.9739 345° North 191 220 4,100  Level Indianapolis Center
Tue 04:27:56 PM 35.9619 -83.9872 351° North 237 273 6,000 1,884 Climbing Indianapolis Center
Tue 04:28:55 PM 36.0436 -84.0081 348° North 252 290 7,900 2,269 Climbing Atlanta Center
Tue 04:29:55 PM 36.1189 -84.0233 351° North 272 313 10,500 1,900 Climbing Atlanta Center
Tue 04:30:55 PM 36.2022 -84.0439 349° North 284 327 11,700 1,257 Climbing Atlanta Center
Tue 04:31:00 PM 36.2370 -83.9734 345° North  Level FlightAware Approximate
Tue 04:32:00 PM 36.3138 -83.9990 345° North  Level FlightAware Approximate
Tue 04:33:06 PM 36.4069 -84.0842 351° North 350 403 14,500  Level Indianapolis Center
Tue 04:34:08 PM 36.5106 -84.1069 350° North 355 409 16,000 1,500 Climbing Indianapolis Center
Tue 04:35:10 PM 36.6256 -84.1319 350° North 357 411 17,600 1,452 Climbing Indianapolis Center
Tue 04:36:12 PM 36.7236 -84.1639 345° North 359 413 19,000 1,355 Climbing Indianapolis Center
Tue 04:37:14 PM 36.8211 -84.1989 344° North 361 415 20,400 1,403 Climbing Indianapolis Center
Tue 04:38:16 PM 36.9189 -84.2344 344° North 364 419 21,900 1,392 Climbing Indianapolis Center
Tue 04:39:19 PM 37.0183 -84.2700 344° North 368 423 23,300 1,355 Climbing Indianapolis Center
Tue 04:40:20 PM 37.1164 -84.3042 344° North 365 420 24,700 1,512 Climbing Indianapolis Center
Tue 04:41:22 PM 37.2294 -84.3458 344° North 362 417 26,400 1,500 Climbing Indianapolis Center
Tue 04:42:24 PM 37.3242 -84.3786 345° North 354 407 27,800 1,355 Climbing Indianapolis Center
Tue 04:43:26 PM 37.4169 -84.4136 343° North 348 400 29,200 1,344 Climbing Indianapolis Center
Tue 04:44:29 PM 37.5117 -84.4472 344° North 351 404 30,600 1,200 Climbing Indianapolis Center
Tue 04:45:31 PM 37.6042 -84.4800 344° North 346 398 31,700 1,016 Climbing Indianapolis Center
Tue 04:46:33 PM 37.6992 -84.5153 344° North 354 407 32,700 1,065 Climbing Indianapolis Center
Tue 04:47:35 PM 37.8122 -84.5550 344° North 359 413 33,900 1,065 Climbing Indianapolis Center
Tue 04:48:37 PM 37.9094 -84.5919 343° North 362 417 34,900 871 Climbing Indianapolis Center
Tue 04:49:39 PM 38.0050 -84.6267 344° North 358 412 35,700 532 Climbing Indianapolis Center
Tue 04:50:41 PM 38.1039 -84.6636 344° North 367 422 36,000 145 Climbing Indianapolis Center
Tue 04:51:43 PM 38.2094 -84.7006 345° North 390 449 36,000  Level Indianapolis Center
Tue 04:52:45 PM 38.3383 -84.7478 344° North 410 472 36,000  Level Indianapolis Center
Tue 04:53:47 PM 38.4528 -84.8000 340° North 436 502 36,000  Level Indianapolis Center
Tue 04:54:49 PM 38.5628 -84.8678 334° Northwest 444 511 36,000 -97 Level Indianapolis Center
Tue 04:55:51 PM 38.6786 -84.9147 342° North 448 516 35,800 -629 Descending Indianapolis Center
Tue 04:56:53 PM 38.7953 -84.9628 342° North 440 506 34,700 -1,210 Descending Indianapolis Center
Tue 04:57:55 PM 38.9289 -85.0183 342° North 430 495 33,300 -1,258 Descending Indianapolis Center
Tue 04:58:57 PM 39.0444 -85.0653 342° North 432 497 32,100 -1,161 Descending Indianapolis Center
Tue 04:59:59 PM 39.1617 -85.1142 342° North 439 505 30,900 -1,161 Descending Indianapolis Center
Tue 05:01:01 PM 39.2814 -85.1642 342° North 446 513 29,700 -1,161 Descending Indianapolis Center
Tue 05:02:03 PM 39.4017 -85.2150 342° North 451 519 28,500 -823 Descending Indianapolis Center
Tue 05:03:05 PM 39.5217 -85.2644 342° North 453 521 28,000 -240 Descending Indianapolis Center
Tue 05:04:08 PM 39.6594 -85.3225 342° North 446 513 28,000  Level Indianapolis Center
Tue 05:05:10 PM 39.7786 -85.3731 342° North 448 516 28,000  Level Indianapolis Center
Tue 05:06:12 PM 39.8981 -85.4239 342° North 451 519 28,000 -387 Level Indianapolis Center
Tue 05:07:14 PM 40.0189 -85.4753 342° North 454 522 27,200 -919 Descending Indianapolis Center
Tue 05:08:16 PM 40.1425 -85.5281 342° North 463 533 26,100 -923 Descending Indianapolis Center
Tue 05:08:32 PM 40.1822 -85.5433 344° North 460 529 26,000 -538 Descending Chicago Center
Tue 05:09:34 PM 40.3011 -85.5942 342° North 450 518 25,400 -919 Descending Chicago Center
Tue 05:10:36 PM 40.4183 -85.6444 342° North 444 511 24,100 -823 Descending Chicago Center
Tue 05:11:38 PM 40.5328 -85.7011 339° North 438 504 23,700 -864 Descending Chicago Center
Tue 05:12:41 PM 40.6242 -85.8461 310° West 441 507 22,300 -1,296 Descending Chicago Center
Tue 05:13:43 PM 40.6961 -85.9731 307° West 435 501 21,000 -1,113 Descending Chicago Center
Tue 05:14:45 PM 40.7686 -86.1064 306° West 429 494 20,000 -484 Descending Chicago Center
Tue 05:15:47 PM 40.8372 -86.2289 307° West 418 481 20,000  Level Chicago Center
Tue 05:16:49 PM 40.9058 -86.3525 306° West 418 481 20,000 -48 Level Chicago Center
Tue 05:17:51 PM 40.9761 -86.4792 306° West 424 488 19,900 -484 Descending Chicago Center
Tue 05:18:53 PM 41.0425 -86.6000 306° West 414 476 19,000 -1,161 Descending Chicago Center
Tue 05:19:55 PM 41.1206 -86.7425 306° West 404 465 17,500 -1,392 Descending Chicago Center
Tue 05:20:58 PM 41.1839 -86.8561 307° West 388 447 16,100 -1,694 Descending Chicago Center
Tue 05:21:59 PM 41.2419 -86.9636 306° West 364 419 14,000 -1,951 Descending Chicago Center
Tue 05:23:01 PM 41.2978 -87.0711 305° West 358 412 12,100 -960 Descending Chicago Center
Tue 05:24:04 PM 41.3558 -87.1781 306° West 358 412 12,000 -432 Descending Chicago Center
Tue 05:25:06 PM 41.4350 -87.2761 317° Northwest 322 371 11,200 -484 Descending Chicago Center
Tue 05:26:08 PM 41.4933 -87.3478 317° Northwest 294 338 11,000 -194 Descending Chicago Center
Tue 05:27:10 PM 41.5561 -87.4172 320° Northwest 295 339 10,800 -629 Descending Chicago Center
Tue 05:28:12 PM 41.6192 -87.4875 320° Northwest 298 343 9,700 -1,113 Descending Chicago Center
Tue 05:29:14 PM 41.6822 -87.5567 321° Northwest 297 342 8,500 -1,016 Descending Chicago Center
Tue 05:30:16 PM 41.7517 -87.6353 320° Northwest 278 320 7,600 -894 Descending Chicago Center
Tue 05:30:48 PM 41.7833 -87.6667 324° Northwest 274 315 7,100 -391 Descending Chicago TRACON
Tue 05:31:48 PM 41.8500 -87.7333 323° Northwest 288 331 7,000 -50 Descending Chicago TRACON
Tue 05:32:48 PM 41.9333 -87.7333 360° North 294 338 7,000 -154 Level Chicago TRACON
Tue 05:34:24 PM 42.0422 -87.6783 21° North 266 306 6,600 -550 Descending Chicago Center
Tue 05:34:48 PM 42.0667 -87.6500 41° Northeast 257 296 5,900 -1,728 Descending Chicago TRACON
Tue 05:36:29 PM 42.1142 -87.7481 303° West 228 262 3,000 -1,104 Descending Chicago Center
Tue 05:37:31 PM 42.0881 -87.8017 237° Southwest 195 224 2,900 -484 Descending Chicago Center
Tue 05:38:33 PM 42.0528 -87.8386 218° Southwest 176 203 2,000 -935 Descending Chicago Center
Tue 05:38:48 PM 42.0333 -87.8500 204° Southwest 129 148 1,700 -696 Descending Chicago TRACON
Tue 05:39:42 PM 42.0167 -87.8667 217° Southwest 124 143 1,200 -556 Descending Chicago TRACON
Tue 05:41:00 PM 41.9817 -87.9067 289° West  Level Estimated

Login

Don't have an account? Register now (free) for customized features, flight alerts, and more!